createdAt,value
2023-05-05T00:00:43.080Z,1003.94
2023-05-05T00:01:43.064Z,1003.95
2023-05-05T00:02:43.124Z,1003.95
2023-05-05T00:03:43.130Z,1003.96
2023-05-05T00:04:43.068Z,1003.95
2023-05-05T00:05:43.058Z,1003.93
2023-05-05T00:06:43.055Z,1003.93
2023-05-05T00:07:43.057Z,1003.94
2023-05-05T00:08:43.062Z,1003.93
2023-05-05T00:09:43.058Z,1003.97
2023-05-05T00:10:43.058Z,1003.91
2023-05-05T00:11:43.073Z,1003.91
2023-05-05T00:12:43.058Z,1003.96
2023-05-05T00:13:43.053Z,1003.91
2023-05-05T00:14:43.791Z,1003.85
2023-05-05T00:15:47.356Z,1003.89
2023-05-05T00:16:50.296Z,1003.86
2023-05-05T00:17:49.639Z,1003.92
2023-05-05T00:18:43.136Z,1003.89
2023-05-05T00:19:43.218Z,1003.91
2023-05-05T00:20:43.060Z,1003.87
2023-05-05T00:21:43.065Z,1003.89
2023-05-05T00:22:43.104Z,1003.88
2023-05-05T00:23:43.054Z,1003.89
2023-05-05T00:24:43.083Z,1003.9
2023-05-05T00:25:43.044Z,1003.9
2023-05-05T00:26:43.058Z,1003.88
2023-05-05T00:27:44.064Z,1003.87
2023-05-05T00:29:43.074Z,1003.82
2023-05-05T00:30:43.055Z,1003.85
2023-05-05T00:31:43.122Z,1003.79
2023-05-05T00:32:43.074Z,1003.8
2023-05-05T00:33:43.059Z,1003.81
2023-05-05T00:34:43.058Z,1003.76
2023-05-05T00:35:43.871Z,1003.76
2023-05-05T00:36:47.682Z,1003.74
2023-05-05T00:37:50.309Z,1003.75
2023-05-05T00:38:49.697Z,1003.74
2023-05-05T00:39:43.071Z,1003.7
2023-05-05T00:40:43.059Z,1003.71
2023-05-05T00:41:43.075Z,1003.75
2023-05-05T00:42:43.067Z,1003.73
2023-05-05T00:43:43.087Z,1003.72
2023-05-05T00:44:43.075Z,1003.73
2023-05-05T00:45:43.087Z,1003.69
2023-05-05T00:46:43.114Z,1003.72
2023-05-05T00:47:43.133Z,1003.72
2023-05-05T00:48:43.092Z,1003.7
2023-05-05T00:49:43.243Z,1003.69
2023-05-05T00:50:43.129Z,1003.71
2023-05-05T00:51:43.129Z,1003.7
2023-05-05T00:52:43.212Z,1003.72
2023-05-05T00:53:43.158Z,1003.69
2023-05-05T00:54:43.123Z,1003.68
2023-05-05T00:55:43.296Z,1003.68
2023-05-05T00:56:43.942Z,1003.64
2023-05-05T00:57:47.576Z,1003.69
2023-05-05T00:58:50.427Z,1003.65
2023-05-05T00:59:49.778Z,1003.6
2023-05-05T01:00:43.120Z,1003.61
2023-05-05T01:01:43.081Z,1003.64
2023-05-05T01:02:43.111Z,1003.62
2023-05-05T01:03:43.154Z,1003.6
2023-05-05T01:04:43.055Z,1003.58
2023-05-05T01:05:43.066Z,1003.56
2023-05-05T01:06:43.068Z,1003.61
2023-05-05T01:07:43.072Z,1003.57
2023-05-05T01:08:43.092Z,1003.59
2023-05-05T01:09:43.050Z,1003.55
2023-05-05T01:10:43.071Z,1003.52
2023-05-05T01:11:43.087Z,1003.57
2023-05-05T01:12:43.078Z,1003.54
2023-05-05T01:13:43.079Z,1003.52
2023-05-05T01:14:43.063Z,1003.59
2023-05-05T01:15:43.063Z,1003.55
2023-05-05T01:16:43.145Z,1003.6
2023-05-05T01:17:43.089Z,1003.58
2023-05-05T01:18:44.517Z,1003.52
2023-05-05T01:19:47.919Z,1003.5
2023-05-05T01:20:49.555Z,1003.51
2023-05-05T01:22:43.066Z,1003.5
2023-05-05T01:23:43.073Z,1003.46
2023-05-05T01:24:43.065Z,1003.4
2023-05-05T01:25:43.068Z,1003.47
2023-05-05T01:26:43.060Z,1003.45
2023-05-05T01:27:43.058Z,1003.46
2023-05-05T01:28:43.077Z,1003.48
2023-05-05T01:29:43.064Z,1003.44
2023-05-05T01:30:43.081Z,1003.45
2023-05-05T01:31:43.082Z,1003.42
2023-05-05T01:32:43.134Z,1003.42
2023-05-05T01:33:43.062Z,1003.41
2023-05-05T01:34:43.060Z,1003.33
2023-05-05T01:35:43.072Z,1003.35
2023-05-05T01:36:43.054Z,1003.32
2023-05-05T01:37:43.050Z,1003.33
2023-05-05T01:38:43.391Z,1003.32
2023-05-05T01:39:44.602Z,1003.31
2023-05-05T01:40:48.083Z,1003.32
2023-05-05T01:41:50.215Z,1003.33
2023-05-05T01:43:43.087Z,1003.37
2023-05-05T01:44:43.274Z,1003.38
2023-05-05T01:45:43.078Z,1003.35
2023-05-05T01:46:43.060Z,1003.4
2023-05-05T01:47:43.081Z,1003.41
2023-05-05T01:48:46.065Z,1003.39
2023-05-05T01:50:43.080Z,1003.37
2023-05-05T01:51:43.058Z,1003.41
2023-05-05T01:52:43.075Z,1003.41
2023-05-05T01:53:43.060Z,1003.41
2023-05-05T01:54:43.058Z,1003.41
2023-05-05T01:55:43.053Z,1003.42
2023-05-05T01:56:43.070Z,1003.43
2023-05-05T01:57:43.067Z,1003.34
2023-05-05T01:58:43.054Z,1003.37
2023-05-05T01:59:43.058Z,1003.42
2023-05-05T02:00:44.694Z,1003.39
2023-05-05T02:01:48.104Z,1003.4
2023-05-05T02:02:50.392Z,1003.45
2023-05-05T02:04:43.108Z,1003.41
2023-05-05T02:05:43.137Z,1003.46
2023-05-05T02:06:43.063Z,1003.44
2023-05-05T02:07:43.059Z,1003.44
2023-05-05T02:08:43.219Z,1003.44
2023-05-05T02:09:43.048Z,1003.46
2023-05-05T02:10:43.065Z,1003.41
2023-05-05T02:11:43.079Z,1003.42
2023-05-05T02:12:43.103Z,1003.37
2023-05-05T02:13:43.097Z,1003.33
2023-05-05T02:14:43.062Z,1003.31
2023-05-05T02:15:43.109Z,1003.31
2023-05-05T02:16:43.048Z,1003.32
2023-05-05T02:17:43.160Z,1003.31
2023-05-05T02:18:43.090Z,1003.32
2023-05-05T02:19:43.062Z,1003.32
2023-05-05T02:20:43.116Z,1003.35
2023-05-05T02:21:44.750Z,1003.39
2023-05-05T02:22:48.208Z,1003.36
2023-05-05T02:23:50.341Z,1003.41
2023-05-05T02:25:43.472Z,1003.5
2023-05-05T02:26:43.055Z,1003.45
2023-05-05T02:27:43.059Z,1003.43
2023-05-05T02:28:43.086Z,1003.48
2023-05-05T02:29:43.198Z,1003.43
2023-05-05T02:30:43.106Z,1003.43
2023-05-05T02:31:43.156Z,1003.42
2023-05-05T02:32:43.106Z,1003.46
2023-05-05T02:33:43.058Z,1003.47
2023-05-05T02:34:43.064Z,1003.49
2023-05-05T02:35:43.061Z,1003.51
2023-05-05T02:36:43.087Z,1003.49
2023-05-05T02:37:43.064Z,1003.47
2023-05-05T02:38:43.059Z,1003.47
2023-05-05T02:39:43.071Z,1003.45
2023-05-05T02:40:43.063Z,1003.47
2023-05-05T02:41:43.083Z,1003.52
2023-05-05T02:42:44.841Z,1003.47
2023-05-05T02:43:48.237Z,1003.48
2023-05-05T02:44:50.567Z,1003.53
2023-05-05T02:46:43.193Z,1003.56
2023-05-05T02:47:43.125Z,1003.59
2023-05-05T02:48:43.052Z,1003.63
2023-05-05T02:49:43.163Z,1003.62
2023-05-05T02:50:43.103Z,1003.66
2023-05-05T02:51:43.062Z,1003.61
2023-05-05T02:52:43.078Z,1003.64
2023-05-05T02:53:43.085Z,1003.67
2023-05-05T02:54:43.073Z,1003.71
2023-05-05T02:55:43.051Z,1003.68
2023-05-05T02:56:43.065Z,1003.74
2023-05-05T02:57:43.058Z,1003.74
2023-05-05T02:58:43.059Z,1003.77
2023-05-05T02:59:43.138Z,1003.78
2023-05-05T03:00:43.060Z,1003.78
2023-05-05T03:01:43.063Z,1003.77
2023-05-05T03:02:43.211Z,1003.76
2023-05-05T03:03:44.970Z,1003.76
2023-05-05T03:04:48.286Z,1003.78
2023-05-05T03:05:50.532Z,1003.86
2023-05-05T03:07:43.074Z,1003.84
2023-05-05T03:08:43.068Z,1003.82
2023-05-05T03:09:43.059Z,1003.85
2023-05-05T03:10:43.142Z,1003.84
2023-05-05T03:11:43.192Z,1003.85
2023-05-05T03:12:43.079Z,1003.84
2023-05-05T03:13:43.065Z,1003.85
2023-05-05T03:14:43.112Z,1003.84
2023-05-05T03:15:43.064Z,1003.86
2023-05-05T03:16:43.113Z,1003.87
2023-05-05T03:17:43.221Z,1003.82
2023-05-05T03:18:43.055Z,1003.87
2023-05-05T03:19:43.061Z,1003.82
2023-05-05T03:20:43.078Z,1003.81
2023-05-05T03:21:43.084Z,1003.77
2023-05-05T03:22:43.055Z,1003.78
2023-05-05T03:23:43.054Z,1003.81
2023-05-05T03:24:45.026Z,1003.85
2023-05-05T03:25:47.953Z,1003.83
2023-05-05T03:26:50.641Z,1003.79
2023-05-05T03:28:43.050Z,1003.82
2023-05-05T03:29:43.065Z,1003.82
2023-05-05T03:30:43.055Z,1003.77
2023-05-05T03:31:43.068Z,1003.81
2023-05-05T03:32:43.284Z,1003.8
2023-05-05T03:33:43.076Z,1003.81
2023-05-05T03:34:43.061Z,1003.81
2023-05-05T03:35:43.060Z,1003.8
2023-05-05T03:36:43.055Z,1003.81
2023-05-05T03:37:43.060Z,1003.82
2023-05-05T03:38:43.121Z,1003.84
2023-05-05T03:39:43.058Z,1003.87
2023-05-05T03:40:47.159Z,1003.86
2023-05-05T03:42:43.116Z,1003.84
2023-05-05T03:43:43.049Z,1003.83
2023-05-05T03:44:43.060Z,1003.85
2023-05-05T03:45:45.128Z,1003.84
2023-05-05T03:46:47.957Z,1003.77
2023-05-05T03:47:50.976Z,1003.77
2023-05-05T03:49:43.059Z,1003.78
2023-05-05T03:50:43.066Z,1003.74
2023-05-05T03:51:43.058Z,1003.75
2023-05-05T03:52:43.081Z,1003.77
2023-05-05T03:53:43.063Z,1003.74
2023-05-05T03:54:43.050Z,1003.75
2023-05-05T03:55:43.051Z,1003.82
2023-05-05T03:56:43.061Z,1003.8
2023-05-05T03:57:43.081Z,1003.82
2023-05-05T03:58:43.065Z,1003.81
2023-05-05T03:59:43.149Z,1003.9
2023-05-05T04:00:43.055Z,1003.91
2023-05-05T04:01:43.063Z,1003.88
2023-05-05T04:02:43.126Z,1003.87
2023-05-05T04:03:43.114Z,1003.85
2023-05-05T04:04:43.072Z,1003.87
2023-05-05T04:05:43.072Z,1003.85
2023-05-05T04:06:44.119Z,1003.82
2023-05-05T04:07:46.983Z,1003.86
2023-05-05T04:08:49.338Z,1003.84
2023-05-05T04:10:43.064Z,1003.86
2023-05-05T04:11:43.072Z,1003.84
2023-05-05T04:12:43.098Z,1003.87
2023-05-05T04:13:43.066Z,1003.88
2023-05-05T04:14:43.066Z,1003.91
2023-05-05T04:15:43.089Z,1003.95
2023-05-05T04:16:43.072Z,1003.98
2023-05-05T04:17:43.147Z,1004
2023-05-05T04:18:43.071Z,1003.99
2023-05-05T04:19:43.060Z,1003.99
2023-05-05T04:20:43.069Z,1003.96
2023-05-05T04:21:43.109Z,1004.01
2023-05-05T04:22:43.211Z,1004
2023-05-05T04:23:43.064Z,1004.02
2023-05-05T04:24:43.068Z,1004.02
2023-05-05T04:25:43.102Z,1003.99
2023-05-05T04:26:43.058Z,1004
2023-05-05T04:27:43.098Z,1004.02
2023-05-05T04:28:45.351Z,1004.01
2023-05-05T04:29:48.402Z,1004
2023-05-05T04:30:49.432Z,1003.97
2023-05-05T04:32:43.082Z,1003.96
2023-05-05T04:33:43.071Z,1003.99
2023-05-05T04:34:43.058Z,1003.99
2023-05-05T04:35:43.080Z,1003.97
2023-05-05T04:36:43.063Z,1004.03
2023-05-05T04:37:43.065Z,1004.03
2023-05-05T04:38:43.239Z,1004
2023-05-05T04:39:43.074Z,1004.06
2023-05-05T04:40:43.066Z,1004.04
2023-05-05T04:41:43.062Z,1004.03
2023-05-05T04:42:43.061Z,1004.03
2023-05-05T04:43:43.060Z,1004.01
2023-05-05T04:44:43.059Z,1003.99
2023-05-05T04:45:43.069Z,1003.99
2023-05-05T04:46:43.103Z,1004.03
2023-05-05T04:47:43.081Z,1004.04
2023-05-05T04:48:43.170Z,1004.06
2023-05-05T04:49:45.422Z,1004.09
2023-05-05T04:50:48.429Z,1004.13
2023-05-05T04:51:50.207Z,1004.1
2023-05-05T04:53:43.070Z,1004.14
2023-05-05T04:54:43.085Z,1004.13
2023-05-05T04:55:43.050Z,1004.17
2023-05-05T04:56:43.087Z,1004.18
2023-05-05T04:57:43.219Z,1004.18
2023-05-05T04:58:43.072Z,1004.17
2023-05-05T04:59:43.075Z,1004.18
2023-05-05T05:00:43.101Z,1004.24
2023-05-05T05:01:43.285Z,1004.16
2023-05-05T05:02:43.127Z,1004.19
2023-05-05T05:03:43.144Z,1004.22
2023-05-05T05:04:43.056Z,1004.2
2023-05-05T05:05:43.058Z,1004.13
2023-05-05T05:06:43.086Z,1004.19
2023-05-05T05:07:43.056Z,1004.21
2023-05-05T05:08:43.065Z,1004.25
2023-05-05T05:09:43.451Z,1004.24
2023-05-05T05:10:45.408Z,1004.25
2023-05-05T05:11:48.465Z,1004.24
2023-05-05T05:12:50.378Z,1004.24
2023-05-05T05:14:43.068Z,1004.25
2023-05-05T05:15:43.061Z,1004.15
2023-05-05T05:16:43.095Z,1004.2
2023-05-05T05:17:43.082Z,1004.19
2023-05-05T05:18:43.058Z,1004.19
2023-05-05T05:19:43.064Z,1004.21
2023-05-05T05:20:43.071Z,1004.26
2023-05-05T05:21:43.069Z,1004.29
2023-05-05T05:22:43.067Z,1004.27
2023-05-05T05:23:43.065Z,1004.25
2023-05-05T05:24:43.079Z,1004.26
2023-05-05T05:25:43.079Z,1004.3
2023-05-05T05:26:43.063Z,1004.34
2023-05-05T05:27:43.059Z,1004.35
2023-05-05T05:28:43.060Z,1004.41
2023-05-05T05:29:43.065Z,1004.38
2023-05-05T05:30:43.314Z,1004.4
2023-05-05T05:31:45.492Z,1004.43
2023-05-05T05:32:48.677Z,1004.44
2023-05-05T05:33:48.684Z,1004.45
2023-05-05T05:35:43.139Z,1004.49
2023-05-05T05:36:43.064Z,1004.5
2023-05-05T05:37:43.082Z,1004.51
2023-05-05T05:38:43.067Z,1004.51
2023-05-05T05:39:46.084Z,1004.58
2023-05-05T05:41:43.172Z,1004.55
2023-05-05T05:42:43.090Z,1004.57
2023-05-05T05:43:43.078Z,1004.56
2023-05-05T05:44:43.120Z,1004.59
2023-05-05T05:45:43.087Z,1004.6
2023-05-05T05:46:43.115Z,1004.56
2023-05-05T05:47:43.125Z,1004.56
2023-05-05T05:48:43.074Z,1004.53
2023-05-05T05:49:43.287Z,1004.53
2023-05-05T05:50:43.086Z,1004.55
2023-05-05T05:51:43.391Z,1004.58
2023-05-05T05:52:45.624Z,1004.57
2023-05-05T05:53:48.717Z,1004.64
2023-05-05T05:54:49.275Z,1004.64
2023-05-05T05:56:43.066Z,1004.69
2023-05-05T05:57:43.072Z,1004.72
2023-05-05T05:58:43.056Z,1004.7
2023-05-05T05:59:43.123Z,1004.72
2023-05-05T06:00:43.075Z,1004.72
2023-05-05T06:01:43.055Z,1004.73
2023-05-05T06:02:43.215Z,1004.69
2023-05-05T06:03:43.233Z,1004.72
2023-05-05T06:04:43.158Z,1004.74
2023-05-05T06:05:43.098Z,1004.72
2023-05-05T06:06:43.068Z,1004.73
2023-05-05T06:07:43.055Z,1004.72
2023-05-05T06:08:43.066Z,1004.76
2023-05-05T06:09:43.089Z,1004.76
2023-05-05T06:10:43.069Z,1004.76
2023-05-05T06:11:43.079Z,1004.76
2023-05-05T06:12:43.486Z,1004.74
2023-05-05T06:13:45.684Z,1004.77
2023-05-05T06:14:48.871Z,1004.72
2023-05-05T06:15:50.667Z,1004.76
2023-05-05T06:17:43.100Z,1004.78
2023-05-05T06:18:43.061Z,1004.82
2023-05-05T06:19:43.079Z,1004.78
2023-05-05T06:20:43.089Z,1004.82
2023-05-05T06:21:43.057Z,1004.83
2023-05-05T06:22:43.068Z,1004.79
2023-05-05T06:23:43.072Z,1004.81
2023-05-05T06:24:43.255Z,1004.81
2023-05-05T06:25:43.057Z,1004.85
2023-05-05T06:26:43.064Z,1004.87
2023-05-05T06:27:43.073Z,1004.86
2023-05-05T06:28:43.048Z,1004.86
2023-05-05T06:29:43.096Z,1004.86
2023-05-05T06:30:43.108Z,1004.85
2023-05-05T06:31:43.075Z,1004.85
2023-05-05T06:32:43.077Z,1004.83
2023-05-05T06:33:43.060Z,1004.84
2023-05-05T06:34:45.775Z,1004.81
2023-05-05T06:35:48.902Z,1004.85
2023-05-05T06:36:48.984Z,1004.87
2023-05-05T06:38:43.077Z,1004.84
2023-05-05T06:39:43.091Z,1004.82
2023-05-05T06:40:43.074Z,1004.83
2023-05-05T06:41:43.063Z,1004.83
2023-05-05T06:42:43.078Z,1004.85
2023-05-05T06:43:43.068Z,1004.86
2023-05-05T06:44:43.086Z,1004.87
2023-05-05T06:45:46.071Z,1004.86
2023-05-05T06:47:43.073Z,1004.89
2023-05-05T06:48:43.147Z,1004.91
2023-05-05T06:49:43.067Z,1004.94
2023-05-05T06:50:43.098Z,1004.91
2023-05-05T06:51:46.102Z,1004.95
2023-05-05T06:53:43.060Z,1004.97
2023-05-05T06:54:43.158Z,1004.98
2023-05-05T06:55:46.255Z,1004.97
2023-05-05T06:56:49.491Z,1005.01
2023-05-05T06:57:49.046Z,1004.99
2023-05-05T06:59:43.060Z,1004.99
2023-05-05T07:00:43.102Z,1005
2023-05-05T07:01:43.070Z,1004.96
2023-05-05T07:02:43.085Z,1004.97
2023-05-05T07:03:43.134Z,1005
2023-05-05T07:04:43.057Z,1005
2023-05-05T07:05:43.061Z,1005.03
2023-05-05T07:06:43.055Z,1005.01
2023-05-05T07:07:43.061Z,1005.02
2023-05-05T07:08:43.080Z,1005.01
2023-05-05T07:09:43.060Z,1005.05
2023-05-05T07:10:43.064Z,1005.05
2023-05-05T07:11:43.071Z,1005.02
2023-05-05T07:12:43.115Z,1005.11
2023-05-05T07:13:43.113Z,1005.07
2023-05-05T07:14:43.057Z,1005.07
2023-05-05T07:15:43.053Z,1005.11
2023-05-05T07:16:43.396Z,1005.09
2023-05-05T07:17:47.033Z,1005.09
2023-05-05T07:18:49.346Z,1005.09
2023-05-05T07:19:49.944Z,1005.13
2023-05-05T07:20:43.073Z,1005.1
2023-05-05T07:21:43.092Z,1005.13
2023-05-05T07:22:43.063Z,1005.11
2023-05-05T07:23:43.073Z,1005.12
2023-05-05T07:24:43.068Z,1005.07
2023-05-05T07:25:43.080Z,1005.09
2023-05-05T07:26:43.065Z,1005.13
2023-05-05T07:27:43.066Z,1005.12
2023-05-05T07:28:43.136Z,1005.12
2023-05-05T07:29:43.067Z,1005.12
2023-05-05T07:30:43.069Z,1005.21
2023-05-05T07:31:43.081Z,1005.23
2023-05-05T07:32:43.085Z,1005.22
2023-05-05T07:33:43.405Z,1005.25
2023-05-05T07:34:43.074Z,1005.25
2023-05-05T07:35:43.059Z,1005.26
2023-05-05T07:36:43.072Z,1005.26
2023-05-05T07:37:43.418Z,1005.23
2023-05-05T07:38:47.109Z,1005.26
2023-05-05T07:39:50.010Z,1005.27
2023-05-05T07:40:49.376Z,1005.23
2023-05-05T07:41:43.063Z,1005.3
2023-05-05T07:42:43.051Z,1005.26
2023-05-05T07:43:47.082Z,1005.21
2023-05-05T07:45:43.068Z,1005.17
2023-05-05T07:46:43.065Z,1005.3
2023-05-05T07:47:43.103Z,1005.27
2023-05-05T07:48:43.059Z,1005.28
2023-05-05T07:49:43.083Z,1005.29
2023-05-05T07:50:43.075Z,1005.26
2023-05-05T07:51:43.058Z,1005.19
2023-05-05T07:52:59.233Z,1005.23
2023-05-05T07:54:43.050Z,1005.27
2023-05-05T07:55:43.058Z,1005.24
2023-05-05T07:56:43.063Z,1005.22
2023-05-05T07:57:43.064Z,1005.21
2023-05-05T07:58:43.777Z,1005.24
2023-05-05T07:59:47.248Z,1005.22
2023-05-05T08:00:50.108Z,1005.22
2023-05-05T08:01:49.495Z,1005.22
2023-05-05T08:02:43.133Z,1005.22
2023-05-05T08:03:43.305Z,1005.26
2023-05-05T08:04:43.106Z,1005.23
2023-05-05T08:05:43.063Z,1005.21
2023-05-05T08:06:43.073Z,1005.25
2023-05-05T08:07:43.102Z,1005.3
2023-05-05T08:08:43.049Z,1005.28
2023-05-05T08:09:43.057Z,1005.34
2023-05-05T08:10:43.085Z,1005.32
2023-05-05T08:11:43.056Z,1005.32
2023-05-05T08:12:43.091Z,1005.3
2023-05-05T08:13:43.061Z,1005.35
2023-05-05T08:14:43.051Z,1005.35
2023-05-05T08:15:43.076Z,1005.36
2023-05-05T08:16:43.075Z,1005.37
2023-05-05T08:17:43.106Z,1005.41
2023-05-05T08:18:43.065Z,1005.42
2023-05-05T08:19:43.620Z,1005.43
2023-05-05T08:20:47.154Z,1005.45
2023-05-05T08:21:49.528Z,1005.43
2023-05-05T08:22:49.632Z,1005.44
2023-05-05T08:23:43.180Z,1005.42
2023-05-05T08:24:43.188Z,1005.42
2023-05-05T08:25:43.087Z,1005.41
2023-05-05T08:26:43.068Z,1005.45
2023-05-05T08:27:43.113Z,1005.45
2023-05-05T08:28:43.054Z,1005.45
2023-05-05T08:29:43.060Z,1005.49
2023-05-05T08:30:43.162Z,1005.52
2023-05-05T08:31:43.107Z,1005.49
2023-05-05T08:32:43.087Z,1005.51
2023-05-05T08:33:43.071Z,1005.58
2023-05-05T08:34:43.058Z,1005.59
2023-05-05T08:35:43.062Z,1005.61
2023-05-05T08:36:43.058Z,1005.62
2023-05-05T08:37:43.077Z,1005.66
2023-05-05T08:38:43.076Z,1005.65
2023-05-05T08:39:43.063Z,1005.66
2023-05-05T08:40:43.823Z,1005.66
2023-05-05T08:41:47.308Z,1005.7
2023-05-05T08:42:50.259Z,1005.68
2023-05-05T08:43:49.711Z,1005.69
2023-05-05T08:44:43.062Z,1005.7
2023-05-05T08:45:43.233Z,1005.68
2023-05-05T08:46:43.098Z,1005.67
2023-05-05T08:47:43.196Z,1005.7
2023-05-05T08:48:43.063Z,1005.7
2023-05-05T08:49:43.067Z,1005.69
2023-05-05T08:50:43.069Z,1005.69
2023-05-05T08:51:43.107Z,1005.67
2023-05-05T08:52:43.081Z,1005.64
2023-05-05T08:53:43.066Z,1005.63
2023-05-05T08:54:43.060Z,1005.68
2023-05-05T08:55:43.073Z,1005.71
2023-05-05T08:56:43.094Z,1005.7
2023-05-05T08:57:43.061Z,1005.63
2023-05-05T08:58:43.059Z,1005.71
2023-05-05T08:59:43.321Z,1005.7
2023-05-05T09:00:43.336Z,1005.74
2023-05-05T09:01:43.811Z,1005.71
2023-05-05T09:02:47.399Z,1005.71
2023-05-05T09:03:50.867Z,1005.72
2023-05-05T09:04:49.758Z,1005.68
2023-05-05T09:05:43.060Z,1005.67
2023-05-05T09:06:43.210Z,1005.66
2023-05-05T09:07:43.050Z,1005.64
2023-05-05T09:08:43.060Z,1005.62
2023-05-05T09:09:43.095Z,1005.63
2023-05-05T09:10:43.076Z,1005.61
2023-05-05T09:11:43.054Z,1005.64
2023-05-05T09:12:43.201Z,1005.67
2023-05-05T09:13:43.060Z,1005.65
2023-05-05T09:14:43.074Z,1005.62
2023-05-05T09:15:43.059Z,1005.62
2023-05-05T09:16:43.079Z,1005.62
2023-05-05T09:17:43.070Z,1005.64
2023-05-05T09:18:43.085Z,1005.62
2023-05-05T09:19:43.059Z,1005.56
2023-05-05T09:20:43.055Z,1005.64
2023-05-05T09:21:43.079Z,1005.63
2023-05-05T09:22:43.956Z,1005.65
2023-05-05T09:23:47.541Z,1005.64
2023-05-05T09:24:50.533Z,1005.64
2023-05-05T09:25:49.827Z,1005.67
2023-05-05T09:26:43.060Z,1005.7
2023-05-05T09:27:43.055Z,1005.63
2023-05-05T09:28:43.062Z,1005.7
2023-05-05T09:29:43.061Z,1005.71
2023-05-05T09:30:43.088Z,1005.62
2023-05-05T09:31:43.063Z,1005.65
2023-05-05T09:32:43.086Z,1005.65
2023-05-05T09:33:43.068Z,1005.65
2023-05-05T09:34:43.050Z,1005.59
2023-05-05T09:35:43.082Z,1005.58
2023-05-05T09:36:43.150Z,1005.6
2023-05-05T09:37:43.072Z,1005.6
2023-05-05T09:38:43.075Z,1005.55
2023-05-05T09:39:43.225Z,1005.58
2023-05-05T09:40:43.085Z,1005.57
2023-05-05T09:41:43.067Z,1005.56
2023-05-05T09:42:43.057Z,1005.55
2023-05-05T09:43:44.025Z,1005.55
2023-05-05T09:44:47.531Z,1005.57
2023-05-05T09:45:50.641Z,1005.58
2023-05-05T09:46:50.026Z,1005.55
2023-05-05T09:47:43.065Z,1005.55
2023-05-05T09:48:43.058Z,1005.63
2023-05-05T09:49:43.065Z,1005.57
2023-05-05T09:50:43.057Z,1005.57
2023-05-05T09:51:43.059Z,1005.61
2023-05-05T09:52:43.055Z,1005.62
2023-05-05T09:53:43.061Z,1005.59
2023-05-05T09:54:43.067Z,1005.61
2023-05-05T09:55:43.177Z,1005.57
2023-05-05T09:56:43.182Z,1005.59
2023-05-05T09:57:43.353Z,1005.57
2023-05-05T09:58:43.250Z,1005.53
2023-05-05T09:59:43.050Z,1005.54
2023-05-05T10:00:43.046Z,1005.5
2023-05-05T10:01:43.117Z,1005.47
2023-05-05T10:02:43.094Z,1005.47
2023-05-05T10:03:43.064Z,1005.47
2023-05-05T10:04:44.187Z,1005.46
2023-05-05T10:05:47.698Z,1005.43
2023-05-05T10:06:50.839Z,1005.41
2023-05-05T10:07:50.153Z,1005.43
2023-05-05T10:08:43.154Z,1005.47
2023-05-05T10:09:43.189Z,1005.49
2023-05-05T10:10:43.250Z,1005.46
2023-05-05T10:11:43.224Z,1005.42
2023-05-05T10:12:43.431Z,1005.43
2023-05-05T10:13:43.282Z,1005.45
2023-05-05T10:14:43.212Z,1005.46
2023-05-05T10:15:43.279Z,1005.46
2023-05-05T10:16:43.138Z,1005.44
2023-05-05T10:18:02.705Z,1005.44
2023-05-05T10:19:43.059Z,1005.42
2023-05-05T10:20:43.204Z,1005.44
2023-05-05T10:21:44.060Z,1005.47
2023-05-05T10:22:43.059Z,1005.44
2023-05-05T10:23:43.046Z,1005.47
2023-05-05T10:24:43.066Z,1005.4
2023-05-05T10:25:43.067Z,1005.43
2023-05-05T10:26:44.313Z,1005.41
2023-05-05T10:27:47.847Z,1005.35
2023-05-05T10:28:50.946Z,1005.39
2023-05-05T10:29:50.254Z,1005.34
2023-05-05T10:30:43.274Z,1005.33
2023-05-05T10:31:43.123Z,1005.31
2023-05-05T10:33:08.238Z,1005.35
2023-05-05T10:34:43.158Z,1005.28
2023-05-05T10:35:43.084Z,1005.29
2023-05-05T10:36:43.064Z,1005.24
2023-05-05T10:37:43.058Z,1005.24
2023-05-05T10:38:43.047Z,1005.2
2023-05-05T10:39:43.058Z,1005.19
2023-05-05T10:40:43.079Z,1005.16
2023-05-05T10:41:43.063Z,1005.16
2023-05-05T10:42:43.075Z,1005.14
2023-05-05T10:43:43.075Z,1005.13
2023-05-05T10:44:43.066Z,1005.14
2023-05-05T10:45:43.216Z,1005.15
2023-05-05T10:46:43.222Z,1005.15
2023-05-05T10:47:44.450Z,1005.15
2023-05-05T10:48:48.038Z,1005.11
2023-05-05T10:49:49.244Z,1005.16
2023-05-05T10:51:44.135Z,1005.15
2023-05-05T10:52:43.144Z,1005.19
2023-05-05T10:53:43.069Z,1005.17
2023-05-05T10:54:43.188Z,1005.2
2023-05-05T10:55:43.054Z,1005.16
2023-05-05T10:56:43.079Z,1005.16
2023-05-05T10:57:43.075Z,1005.14
2023-05-05T10:58:59.538Z,1005.11
2023-05-05T11:00:43.140Z,1005.05
2023-05-05T11:01:43.069Z,1005.03
2023-05-05T11:02:43.216Z,1004.97
2023-05-05T11:03:43.082Z,1005.03
2023-05-05T11:04:43.056Z,1004.92
2023-05-05T11:05:43.265Z,1004.88
2023-05-05T11:06:43.232Z,1004.83
2023-05-05T11:07:43.163Z,1004.83
2023-05-05T11:08:44.464Z,1004.82
2023-05-05T11:09:47.363Z,1004.81
2023-05-05T11:10:49.686Z,1004.8
2023-05-05T11:12:43.102Z,1004.78
2023-05-05T11:13:43.070Z,1004.75
2023-05-05T11:14:43.048Z,1004.76
2023-05-05T11:15:43.058Z,1004.7
2023-05-05T11:16:43.150Z,1004.68
2023-05-05T11:17:43.128Z,1004.64
2023-05-05T11:18:43.064Z,1004.6
2023-05-05T11:19:43.192Z,1004.59
2023-05-05T11:20:43.053Z,1004.56
2023-05-05T11:21:43.057Z,1004.54
2023-05-05T11:22:43.074Z,1004.52
2023-05-05T11:23:43.076Z,1004.52
2023-05-05T11:24:43.052Z,1004.58
2023-05-05T11:25:43.056Z,1004.55
2023-05-05T11:26:43.072Z,1004.52
2023-05-05T11:27:43.054Z,1004.42
2023-05-05T11:28:43.074Z,1004.43
2023-05-05T11:29:44.594Z,1004.44
2023-05-05T11:30:48.103Z,1004.43
2023-05-05T11:31:50.211Z,1004.43
2023-05-05T11:33:43.090Z,1004.41
2023-05-05T11:34:43.064Z,1004.51
2023-05-05T11:35:43.056Z,1004.43
2023-05-05T11:36:43.077Z,1004.41
2023-05-05T11:37:43.064Z,1004.41
2023-05-05T11:38:43.056Z,1004.39
2023-05-05T11:39:43.060Z,1004.39
2023-05-05T11:40:43.065Z,1004.4
2023-05-05T11:41:43.083Z,1004.36
2023-05-05T11:42:43.056Z,1004.36
2023-05-05T11:43:43.073Z,1004.39
2023-05-05T11:44:43.060Z,1004.44
2023-05-05T11:45:43.054Z,1004.42
2023-05-05T11:46:43.089Z,1004.39
2023-05-05T11:47:43.079Z,1004.41
2023-05-05T11:48:43.106Z,1004.39
2023-05-05T11:49:43.123Z,1004.38
2023-05-05T11:50:44.649Z,1004.3
2023-05-05T11:51:48.188Z,1004.27
2023-05-05T11:52:50.342Z,1004.26
2023-05-05T11:54:43.095Z,1004.22
2023-05-05T11:55:43.076Z,1004.21
2023-05-05T11:56:43.056Z,1004.18
2023-05-05T11:57:43.050Z,1004.17
2023-05-05T11:58:43.058Z,1004.18
2023-05-05T11:59:43.064Z,1004.21
2023-05-05T12:00:43.081Z,1004.16
2023-05-05T12:01:43.077Z,1004.15
2023-05-05T12:02:43.130Z,1004.16
2023-05-05T12:03:43.412Z,1004.16
2023-05-05T12:04:43.098Z,1004.14
2023-05-05T12:05:43.054Z,1004.1
2023-05-05T12:06:43.085Z,1004.12
2023-05-05T12:07:43.054Z,1004.09
2023-05-05T12:08:43.065Z,1004.05
2023-05-05T12:09:43.072Z,1004.08
2023-05-05T12:10:43.074Z,1004.06
2023-05-05T12:11:44.749Z,1004.08
2023-05-05T12:12:48.447Z,1004.12
2023-05-05T12:13:50.384Z,1004.11
2023-05-05T12:15:43.136Z,1004.09
2023-05-05T12:16:43.142Z,1004.07
2023-05-05T12:17:43.104Z,1004.06
2023-05-05T12:18:43.081Z,1004.02
2023-05-05T12:19:43.074Z,1004.05
2023-05-05T12:20:43.060Z,1004.03
2023-05-05T12:21:43.084Z,1004
2023-05-05T12:22:43.069Z,1004.07
2023-05-05T12:23:43.065Z,1004.05
2023-05-05T12:24:43.070Z,1004.1
2023-05-05T12:25:43.048Z,1004.1
2023-05-05T12:26:43.078Z,1004.05
2023-05-05T12:27:43.057Z,1004.07
2023-05-05T12:28:43.071Z,1004.04
2023-05-05T12:29:43.055Z,1004.01
2023-05-05T12:30:43.090Z,1004.03
2023-05-05T12:31:43.082Z,1004.01
2023-05-05T12:32:44.906Z,1004.01
2023-05-05T12:33:48.038Z,1004
2023-05-05T12:34:50.393Z,1004.01
2023-05-05T12:36:43.068Z,1003.98
2023-05-05T12:37:43.068Z,1004
2023-05-05T12:38:43.053Z,1003.99
2023-05-05T12:39:43.173Z,1003.96
2023-05-05T12:40:43.224Z,1003.99
2023-05-05T12:41:43.060Z,1003.97
2023-05-05T12:42:44.091Z,1003.94